Time;durP1;ratioP1;P1;durP2;ratioP2;P2;SDS_P1;SDS_P2;PMS_P1;PMS_P2;Temp;Humidity;BMP_temperature;BMP_pressure;BME280_temperature;BME280_humidity;BME280_pressure;Samples;Min_cycle;Max_cycle;Signal;HPM_P1;HPM_P2
2021/01/07 00:01:31;;;;;;;15.83;12.47;;;1.50;99.90;;;;;;5007253;28;20511;-53
2021/01/07 00:03:59;;;;;;;15.63;12.83;;;1.50;99.90;;;;;;5008119;28;21026;-55
2021/01/07 00:06:26;;;;;;;15.50;12.70;;;1.50;99.90;;;;;;5007756;28;20476;-55
2021/01/07 00:08:53;;;;;;;14.33;11.63;;;1.40;99.90;;;;;;5008327;28;21066;-56
2021/01/07 00:11:21;;;;;;;15.73;12.93;;;1.40;99.90;;;;;;5007764;28;20476;-54
2021/01/07 00:13:48;;;;;;;15.47;11.83;;;1.40;99.90;;;;;;5008011;28;20559;-52
2021/01/07 00:16:16;;;;;;;16.27;12.73;;;1.40;99.90;;;;;;5016331;28;20989;-53
2021/01/07 00:18:44;;;;;;;16.67;12.97;;;1.50;99.90;;;;;;5023990;28;20500;-56
2021/01/07 00:21:14;;;;;;;16.77;12.07;;;1.50;99.90;;;;;;5026920;28;20820;-53
2021/01/07 00:23:41;;;;;;;17.20;12.97;;;1.80;99.90;;;;;;5027381;28;20802;-54
2021/01/07 00:26:09;;;;;;;18.53;13.73;;;1.60;99.90;;;;;;5014756;28;20480;-53
2021/01/07 00:28:37;;;;;;;17.13;12.87;;;1.60;99.90;;;;;;5006530;28;20922;-55
2021/01/07 00:31:04;;;;;;;16.40;12.77;;;1.50;99.90;;;;;;5007111;28;20570;-52
2021/01/07 00:33:32;;;;;;;15.97;12.47;;;1.50;99.90;;;;;;5007689;28;20572;-53
2021/01/07 00:35:59;;;;;;;14.47;10.70;;;1.50;99.90;;;;;;5007682;28;20472;-53
2021/01/07 00:38:26;;;;;;;16.80;12.80;;;1.60;99.90;;;;;;5007586;28;20552;-54
2021/01/07 00:40:54;;;;;;;16.47;12.20;;;1.60;99.90;;;;;;5008259;28;20508;-56
2021/01/07 00:43:21;;;;;;;16.83;12.70;;;1.50;99.90;;;;;;5007378;28;21031;-54
2021/01/07 00:45:48;;;;;;;17.73;13.00;;;1.50;99.90;;;;;;5007788;28;20499;-57
2021/01/07 00:48:16;;;;;;;17.43;12.37;;;1.40;99.90;;;;;;5007782;28;20488;-54
2021/01/07 00:50:44;;;;;;;17.23;12.50;;;1.50;99.90;;;;;;5006186;28;21064;-53
2021/01/07 00:53:12;;;;;;;17.47;12.80;;;1.50;99.90;;;;;;5006002;28;20499;-53
2021/01/07 00:55:39;;;;;;;16.80;12.93;;;1.50;99.90;;;;;;5022419;28;20477;-53
2021/01/07 00:58:09;;;;;;;17.67;12.97;;;1.50;99.90;;;;;;5006079;28;20528;-52
2021/01/07 01:00:37;;;;;;;16.07;12.30;;;1.50;99.90;;;;;;5006840;28;20947;-53
2021/01/07 01:03:04;;;;;;;17.17;12.40;;;1.60;99.90;;;;;;5007027;28;20940;-52
2021/01/07 01:05:32;;;;;;;17.23;12.87;;;1.70;99.90;;;;;;5007396;28;20500;-54
2021/01/07 01:08:00;;;;;;;19.10;13.53;;;1.70;99.90;;;;;;5007633;28;20488;-54
2021/01/07 01:10:27;;;;;;;16.33;12.37;;;1.60;99.90;;;;;;5008922;28;20553;-56
2021/01/07 01:12:55;;;;;;;17.33;12.53;;;1.50;99.90;;;;;;5011730;28;20512;-53
2021/01/07 01:15:22;;;;;;;16.37;12.70;;;1.50;99.90;;;;;;5018608;28;20472;-53
2021/01/07 01:17:49;;;;;;;16.90;12.37;;;1.50;99.90;;;;;;5023600;28;20550;-56
2021/01/07 01:20:17;;;;;;;17.00;12.40;;;1.50;99.90;;;;;;5026912;28;20565;-53
2021/01/07 01:22:44;;;;;;;16.17;11.73;;;1.60;99.90;;;;;;5007904;28;20559;-55
2021/01/07 01:25:14;;;;;;;15.70;11.73;;;1.50;99.90;;;;;;5004779;28;20884;-53
2021/01/07 01:27:44;;;;;;;15.43;11.47;;;1.50;99.90;;;;;;5006367;28;20547;-53
2021/01/07 01:30:14;;;;;;;17.87;13.20;;;1.50;99.90;;;;;;5006628;28;20477;-52
2021/01/07 01:32:43;;;;;;;15.60;11.10;;;1.60;99.90;;;;;;5007208;28;20488;-56
2021/01/07 01:35:13;;;;;;;15.47;10.53;;;1.60;99.90;;;;;;5010442;28;20488;-55
2021/01/07 01:37:43;;;;;;;17.17;12.70;;;1.70;99.90;;;;;;5010524;28;20477;-53
2021/01/07 01:40:15;;;;;;;17.90;11.73;;;1.60;99.90;;;;;;5010836;28;20567;-54
2021/01/07 01:42:42;;;;;;;17.97;12.60;;;1.90;99.90;;;;;;5010394;28;20491;-54
2021/01/07 01:45:10;;;;;;;17.23;12.70;;;1.90;99.90;;;;;;5010296;28;20579;-55
2021/01/07 01:47:38;;;;;;;16.70;11.97;;;1.80;99.90;;;;;;5010500;28;20614;-55
2021/01/07 01:50:07;;;;;;;15.60;11.50;;;1.60;99.90;;;;;;5010146;28;20507;-54
2021/01/07 01:52:36;;;;;;;16.13;11.03;;;1.60;99.90;;;;;;5010130;28;20832;-52
2021/01/07 01:55:05;;;;;;;16.40;11.50;;;1.70;99.90;;;;;;5010586;28;20535;-53
2021/01/07 01:57:34;;;;;;;15.57;11.20;;;1.60;99.90;;;;;;5010052;28;20882;-53
2021/01/07 02:00:03;;;;;;;14.60;9.90;;;1.60;99.90;;;;;;5010342;28;20484;-56
2021/01/07 02:02:31;;;;;;;14.87;10.90;;;1.60;99.90;;;;;;5009101;28;21000;-54
2021/01/07 02:05:02;;;;;;;14.43;10.93;;;1.50;99.90;;;;;;5010564;28;20488;-53
2021/01/07 02:07:30;;;;;;;14.33;9.90;;;1.50;99.90;;;;;;5008990;28;20538;-52
2021/01/07 02:09:58;;;;;;;17.27;10.97;;;1.70;99.90;;;;;;5007678;28;20476;-52
2021/01/07 02:12:25;;;;;;;15.63;11.53;;;1.80;99.90;;;;;;5015945;28;20508;-54
2021/01/07 02:14:54;;;;;;;15.60;11.17;;;1.80;99.90;;;;;;5021288;28;20562;-53
2021/01/07 02:17:21;;;;;;;15.03;10.37;;;1.70;99.90;;;;;;5024670;28;20480;-53
2021/01/07 02:19:48;;;;;;;16.93;11.50;;;1.70;99.90;;;;;;5012447;28;20508;-56
2021/01/07 02:22:17;;;;;;;15.50;10.40;;;1.80;99.90;;;;;;5008290;28;20836;-54
2021/01/07 02:24:44;;;;;;;14.57;9.70;;;1.80;99.90;;;;;;5010887;28;20568;-55
2021/01/07 02:27:13;;;;;;;15.13;10.67;;;1.70;99.90;;;;;;5009356;28;20566;-53
2021/01/07 02:29:41;;;;;;;14.63;9.80;;;1.80;99.90;;;;;;5009514;28;20539;-56
2021/01/07 02:32:11;;;;;;;16.83;11.50;;;2.00;99.90;;;;;;5009040;28;20481;-55
2021/01/07 02:34:38;;;;;;;15.20;10.07;;;1.80;99.90;;;;;;5009664;28;20491;-53
2021/01/07 02:37:05;;;;;;;13.67;9.87;;;1.70;99.90;;;;;;5009166;28;21321;-53
2021/01/07 02:39:34;;;;;;;15.30;11.00;;;1.60;99.90;;;;;;5009847;28;20913;-55
2021/01/07 02:42:01;;;;;;;12.60;8.53;;;1.70;99.90;;;;;;5008975;28;21097;-54
2021/01/07 02:44:28;;;;;;;14.70;9.90;;;1.70;99.90;;;;;;5008745;28;20563;-56
2021/01/07 02:46:56;;;;;;;12.93;9.10;;;1.60;99.90;;;;;;5009534;28;20559;-53
2021/01/07 02:49:23;;;;;;;14.07;9.53;;;1.70;99.90;;;;;;5009884;28;20469;-52
2021/01/07 02:51:51;;;;;;;14.50;9.97;;;1.70;99.90;;;;;;5009074;28;20557;-53
2021/01/07 02:54:18;;;;;;;14.20;10.07;;;1.70;99.90;;;;;;5009345;28;20500;-54
2021/01/07 02:56:46;;;;;;;13.73;9.70;;;1.70;99.90;;;;;;5008618;28;21542;-52
2021/01/07 02:59:13;;;;;;;12.90;9.40;;;1.70;99.90;;;;;;5009464;28;20488;-56
2021/01/07 03:01:41;;;;;;;13.17;9.60;;;1.60;99.90;;;;;;5008330;28;20564;-55
2021/01/07 03:04:08;;;;;;;15.60;10.20;;;1.80;99.90;;;;;;5007951;28;20564;-53
2021/01/07 03:06:35;;;;;;;14.33;8.50;;;1.90;99.90;;;;;;5010049;28;20571;-54
2021/01/07 03:09:04;;;;;;;14.77;9.27;;;2.10;99.90;;;;;;5016881;28;20984;-53
2021/01/07 03:11:31;;;;;;;14.53;10.13;;;2.10;99.90;;;;;;5018442;28;20472;-54
2021/01/07 03:13:59;;;;;;;11.67;8.47;;;1.90;99.90;;;;;;5008716;28;20508;-53
2021/01/07 03:16:26;;;;;;;13.73;9.10;;;1.90;99.90;;;;;;5007928;28;20559;-53
2021/01/07 03:18:54;;;;;;;13.53;9.33;;;1.90;99.90;;;;;;5008690;28;20513;-54
2021/01/07 03:21:21;;;;;;;14.50;9.70;;;1.80;99.90;;;;;;5007532;28;20504;-52
2021/01/07 03:23:48;;;;;;;13.43;9.67;;;1.70;99.90;;;;;;5007810;28;20522;-54
2021/01/07 03:26:15;;;;;;;13.17;9.33;;;1.60;99.90;;;;;;4999667;28;20926;-56
2021/01/07 03:28:43;;;;;;;11.83;8.80;;;1.70;99.90;;;;;;5008419;28;21146;-52
2021/01/07 03:31:13;;;;;;;12.50;9.07;;;1.70;99.90;;;;;;5007964;28;20488;-54
2021/01/07 03:33:49;;;;;;;11.07;8.32;;;1.80;99.90;;;;;;3329450;28;10022524;-53
2021/01/07 03:36:16;;;;;;;11.27;8.27;;;1.80;99.90;;;;;;2933998;28;10001956;-56
2021/01/07 03:38:44;;;;;;;11.37;8.20;;;1.70;99.90;;;;;;5008011;28;20789;-53
2021/01/07 03:41:12;;;;;;;9.47;7.10;;;1.90;99.90;;;;;;5008118;28;20472;-53
2021/01/07 03:43:39;;;;;;;12.37;9.17;;;2.00;99.90;;;;;;5007709;28;20522;-54
2021/01/07 03:46:06;;;;;;;11.03;8.00;;;1.90;99.90;;;;;;5008361;28;20551;-55
2021/01/07 03:48:34;;;;;;;12.43;8.33;;;1.90;99.90;;;;;;5007926;28;20485;-52
2021/01/07 03:51:02;;;;;;;12.43;8.83;;;1.90;99.90;;;;;;5008285;28;21056;-54
2021/01/07 03:53:29;;;;;;;12.00;8.90;;;1.90;99.90;;;;;;5007687;28;20496;-53
2021/01/07 03:55:57;;;;;;;11.87;8.27;;;2.00;99.90;;;;;;5007916;28;20562;-52
2021/01/07 03:58:24;;;;;;;11.97;8.23;;;1.80;99.90;;;;;;5008505;28;20907;-53
2021/01/07 04:00:52;;;;;;;11.03;7.80;;;1.80;99.90;;;;;;5010265;28;20568;-54
2021/01/07 04:03:19;;;;;;;12.07;8.93;;;2.00;99.90;;;;;;5017087;28;20508;-54
2021/01/07 04:05:48;;;;;;;11.20;8.03;;;1.80;99.90;;;;;;5008692;28;21210;-53
2021/01/07 04:08:16;;;;;;;10.97;8.27;;;1.80;99.90;;;;;;5013848;28;20468;-56
2021/01/07 04:10:43;;;;;;;10.13;8.07;;;1.70;99.90;;;;;;5023472;28;20510;-54
2021/01/07 04:13:11;;;;;;;11.00;8.37;;;1.60;99.90;;;;;;5022028;28;20496;-54
2021/01/07 04:15:39;;;;;;;10.60;7.67;;;1.90;99.90;;;;;;5007311;28;20490;-53
2021/01/07 04:18:06;;;;;;;10.60;7.63;;;1.90;99.90;;;;;;5004525;28;20551;-54
2021/01/07 04:20:34;;;;;;;10.90;7.93;;;1.80;99.90;;;;;;5007426;28;20519;-56
2021/01/07 04:23:03;;;;;;;10.00;7.47;;;1.90;99.90;;;;;;5007178;28;20477;-53
2021/01/07 04:25:30;;;;;;;11.70;8.83;;;1.90;99.90;;;;;;5008507;28;20538;-55
2021/01/07 04:27:57;;;;;;;10.93;7.80;;;2.00;99.90;;;;;;5018740;28;20975;-52
2021/01/07 04:30:24;;;;;;;11.40;7.95;;;1.90;99.90;;;;;;5023885;28;20452;-54
2021/01/07 04:32:52;;;;;;;11.27;8.50;;;1.90;99.90;;;;;;5027433;28;20244;-53
2021/01/07 04:35:20;;;;;;;10.33;7.77;;;1.80;99.90;;;;;;5008783;28;20558;-52
2021/01/07 04:37:47;;;;;;;10.37;7.77;;;1.70;99.90;;;;;;5007757;28;20476;-53
2021/01/07 04:40:16;;;;;;;10.20;7.77;;;1.80;99.90;;;;;;5008074;28;20535;-52
2021/01/07 04:42:43;;;;;;;9.70;7.27;;;1.90;99.90;;;;;;5006970;28;20468;-53
2021/01/07 04:45:14;;;;;;;10.73;7.93;;;1.80;99.90;;;;;;5008084;28;20538;-54
2021/01/07 04:47:48;;;;;;;9.27;7.13;;;1.70;99.90;;;;;;5007634;28;20464;-53
2021/01/07 04:50:17;;;;;;;9.97;7.23;;;2.00;99.90;;;;;;5027522;28;20466;-52
2021/01/07 04:52:44;;;;;;;9.17;7.20;;;1.90;99.90;;;;;;5026678;28;20503;-56
2021/01/07 04:55:16;;;;;;;7.93;5.67;;;2.00;99.90;;;;;;5022355;28;20840;-55
2021/01/07 04:57:44;;;;;;;8.83;6.63;;;2.00;99.90;;;;;;5006384;28;20524;-55
2021/01/07 05:00:13;;;;;;;10.37;7.07;;;2.00;99.90;;;;;;5013314;28;20491;-54
2021/01/07 05:02:41;;;;;;;9.83;7.33;;;2.00;99.90;;;;;;5011048;28;20538;-55
2021/01/07 05:05:09;;;;;;;9.77;7.17;;;1.90;99.90;;;;;;5016766;28;21662;-57
2021/01/07 05:07:38;;;;;;;9.37;5.80;;;2.00;99.90;;;;;;5023095;28;20506;-56
2021/01/07 05:10:08;;;;;;;10.83;7.70;;;2.00;99.90;;;;;;5030921;28;20488;-54
2021/01/07 05:12:38;;;;;;;10.33;7.80;;;1.90;99.90;;;;;;5022392;28;20995;-56
2021/01/07 05:15:08;;;;;;;9.97;7.53;;;1.80;99.90;;;;;;5010503;28;20607;-55
2021/01/07 05:17:36;;;;;;;9.83;7.37;;;1.70;99.90;;;;;;5007261;28;20923;-53
2021/01/07 05:20:09;;;;;;;10.27;7.43;;;1.80;99.90;;;;;;5010830;28;21328;-54
2021/01/07 05:22:41;;;;;;;9.80;7.43;;;1.70;99.90;;;;;;5010189;28;20535;-56
2021/01/07 05:25:11;;;;;;;10.23;7.20;;;1.70;99.90;;;;;;5010421;28;20593;-53
2021/01/07 05:27:41;;;;;;;10.10;7.07;;;1.70;99.90;;;;;;5011025;28;20589;-53
2021/01/07 05:30:11;;;;;;;9.27;7.00;;;1.90;99.90;;;;;;5010382;28;20479;-55
2021/01/07 05:32:40;;;;;;;8.43;6.23;;;1.80;99.90;;;;;;4990715;28;20548;-55
2021/01/07 05:35:10;;;;;;;8.80;6.37;;;1.70;99.90;;;;;;4990999;28;20885;-52
2021/01/07 05:37:39;;;;;;;8.73;6.40;;;1.60;99.90;;;;;;4991024;28;20492;-53
2021/01/07 05:40:09;;;;;;;8.60;6.27;;;1.80;99.90;;;;;;4991271;28;20485;-54
2021/01/07 05:42:42;;;;;;;10.23;7.30;;;1.70;99.90;;;;;;4990609;28;20584;-55
2021/01/07 05:45:13;;;;;;;8.60;6.63;;;1.60;99.90;;;;;;5000059;28;20980;-54
2021/01/07 05:47:43;;;;;;;9.10;6.80;;;1.60;99.90;;;;;;5010188;28;20897;-53
2021/01/07 05:50:13;;;;;;;9.23;6.90;;;1.80;99.90;;;;;;5010402;28;20560;-53
2021/01/07 05:52:45;;;;;;;9.10;6.83;;;1.90;99.90;;;;;;5009879;28;20476;-54
2021/01/07 05:55:14;;;;;;;8.77;6.43;;;1.70;99.90;;;;;;5012162;28;20917;-54
2021/01/07 05:57:43;;;;;;;9.47;6.70;;;1.80;99.90;;;;;;5013389;28;20572;-53
2021/01/07 06:00:13;;;;;;;8.87;6.70;;;1.70;99.90;;;;;;5016630;28;20949;-56
2021/01/07 06:02:42;;;;;;;8.63;6.27;;;1.80;99.90;;;;;;5020270;28;20486;-55
2021/01/07 06:05:13;;;;;;;8.80;6.47;;;1.80;99.90;;;;;;5009107;28;20499;-55
2021/01/07 06:07:41;;;;;;;8.63;6.57;;;1.90;99.90;;;;;;5009270;28;20472;-56
2021/01/07 06:10:10;;;;;;;9.80;6.43;;;1.90;99.90;;;;;;5008126;28;21009;-55
2021/01/07 06:12:38;;;;;;;9.63;6.63;;;1.90;99.90;;;;;;5005519;28;21073;-53
2021/01/07 06:15:11;;;;;;;8.80;6.33;;;2.10;99.90;;;;;;5008483;28;21238;-55
2021/01/07 06:17:39;;;;;;;8.70;5.80;;;2.00;99.90;;;;;;5015409;28;20489;-52
2021/01/07 06:20:14;;;;;;;8.90;6.33;;;2.00;99.90;;;;;;5006835;28;21112;-53
2021/01/07 06:22:46;;;;;;;9.03;6.40;;;1.90;99.90;;;;;;5011026;28;20496;-54
2021/01/07 06:25:16;;;;;;;8.70;6.37;;;1.90;99.90;;;;;;5012073;28;20504;-55
2021/01/07 06:27:45;;;;;;;8.87;6.03;;;1.80;99.90;;;;;;5006379;28;21072;-52
2021/01/07 06:30:35;;;;;;;7.90;5.93;;;1.80;99.90;;;;;;5023574;28;21044;-56
2021/01/07 06:33:12;;;;;;;9.77;5.87;;;1.80;99.90;;;;;;5024314;28;20516;-55
2021/01/07 06:35:42;;;;;;;12.77;5.70;;;2.00;99.90;;;;;;5021862;28;20506;-56
2021/01/07 06:38:20;;;;;;;10.13;6.63;;;2.10;99.90;;;;;;5027614;28;20562;-54
2021/01/07 06:40:48;;;;;;;11.20;6.77;;;2.10;99.90;;;;;;5027789;28;20533;-53
2021/01/07 06:43:19;;;;;;;10.87;6.00;;;2.20;99.90;;;;;;5027097;28;20809;-51
2021/01/07 06:45:55;;;;;;;9.67;6.20;;;2.20;99.90;;;;;;5024484;28;20563;-50
2021/01/07 06:48:35;;;;;;;10.03;6.23;;;2.10;99.90;;;;;;5026912;28;20475;-50
2021/01/07 06:51:05;;;;;;;9.77;6.47;;;2.10;99.90;;;;;;5026424;28;20514;-50
2021/01/07 06:53:37;;;;;;;10.53;5.33;;;2.00;99.90;;;;;;5026168;28;21132;-50
2021/01/07 06:56:19;;;;;;;10.87;5.50;;;2.20;99.90;;;;;;5013308;28;20491;-50
2021/01/07 06:58:48;;;;;;;13.30;6.43;;;2.30;99.90;;;;;;5001352;28;20497;-51
2021/01/07 07:01:18;;;;;;;11.57;6.77;;;2.30;99.90;;;;;;5013128;28;20484;-50
2021/01/07 07:03:51;;;;;;;11.40;6.20;;;2.10;99.90;;;;;;5021434;28;20483;-50
2021/01/07 07:06:24;;;;;;;10.93;6.37;;;2.10;99.90;;;;;;5023806;28;20577;-51
2021/01/07 07:08:52;;;;;;;11.00;6.37;;;2.00;99.90;;;;;;5005706;28;20476;-52
2021/01/07 07:11:51;;;;;;;10.20;5.90;;;2.10;99.90;;;;;;5002497;28;20501;-50
2021/01/07 07:14:20;;;;;;;10.30;6.20;;;2.00;99.90;;;;;;5005570;28;20971;-51
2021/01/07 07:16:49;;;;;;;11.97;7.00;;;2.00;99.90;;;;;;5005772;28;20484;-51
2021/01/07 07:19:27;;;;;;;13.80;7.10;;;2.00;99.90;;;;;;5005693;28;20471;-50
2021/01/07 07:22:00;;;;;;;12.70;6.97;;;2.00;99.90;;;;;;5005521;28;20519;-50
2021/01/07 07:24:33;;;;;;;12.10;6.70;;;1.90;99.90;;;;;;5005544;28;20555;-50
2021/01/07 07:27:19;;;;;;;10.63;6.63;;;1.90;99.90;;;;;;5004943;28;20484;-50
2021/01/07 07:29:49;;;;;;;11.50;6.93;;;1.80;99.90;;;;;;5005399;28;21559;-51
2021/01/07 07:32:25;;;;;;;10.70;7.00;;;1.70;99.90;;;;;;5004954;28;20476;-50
2021/01/07 07:34:54;;;;;;;11.43;6.50;;;1.70;99.90;;;;;;5007058;28;20897;-50
2021/01/07 07:37:23;;;;;;;11.87;7.00;;;1.90;99.90;;;;;;5006801;28;20492;-51
2021/01/07 07:39:59;;;;;;;12.33;8.00;;;1.90;99.90;;;;;;5006515;28;20488;-53
2021/01/07 07:42:29;;;;;;;12.97;7.40;;;2.00;99.90;;;;;;5005459;28;20490;-54
2021/01/07 07:44:58;;;;;;;12.63;7.27;;;1.90;99.90;;;;;;5007209;28;20488;-50
2021/01/07 07:47:26;;;;;;;13.43;7.27;;;2.00;99.90;;;;;;5007038;28;20503;-51
2021/01/07 07:49:55;;;;;;;12.00;7.30;;;1.90;99.90;;;;;;5006777;28;20484;-52
2021/01/07 07:52:23;;;;;;;12.00;7.43;;;1.80;99.90;;;;;;5005933;28;20496;-50
2021/01/07 07:55:01;;;;;;;12.17;7.27;;;1.90;99.90;;;;;;5008508;28;20498;-50
2021/01/07 07:57:29;;;;;;;13.70;7.93;;;2.10;99.90;;;;;;5000290;28;20486;-54
2021/01/07 08:00:15;;;;;;;13.03;7.57;;;2.00;99.90;;;;;;5022077;28;20483;-53
2021/01/07 08:02:44;;;;;;;14.23;9.70;;;1.90;99.90;;;;;;5002473;28;20880;-51
2021/01/07 08:05:25;;;;;;;12.53;8.00;;;1.90;99.90;;;;;;5005005;28;20329;-52
2021/01/07 08:07:52;;;;;;;12.33;7.80;;;1.80;99.90;;;;;;5003700;28;20543;-51
2021/01/07 08:10:20;;;;;;;12.80;8.23;;;1.80;99.90;;;;;;5004746;28;20953;-51
2021/01/07 08:12:47;;;;;;;11.47;7.60;;;1.80;99.90;;;;;;5005840;28;21255;-53
2021/01/07 08:15:27;;;;;;;12.10;7.40;;;1.80;99.90;;;;;;5005935;28;21007;-52
2021/01/07 08:17:55;;;;;;;12.03;7.60;;;1.90;99.90;;;;;;5005826;28;20563;-52
2021/01/07 08:20:26;;;;;;;12.03;7.67;;;1.90;99.90;;;;;;5006567;28;20480;-51
2021/01/07 08:22:54;;;;;;;11.90;7.50;;;1.80;99.90;;;;;;5016734;28;20508;-51
2021/01/07 08:25:28;;;;;;;11.67;7.90;;;1.80;99.90;;;;;;5006069;28;20517;-54
2021/01/07 08:28:02;;;;;;;12.93;8.37;;;1.80;99.90;;;;;;5006138;28;20484;-52
2021/01/07 08:30:30;;;;;;;11.47;7.80;;;1.80;99.90;;;;;;4990487;28;20912;-51
2021/01/07 08:33:01;;;;;;;11.70;7.90;;;1.80;99.90;;;;;;5005655;28;20468;-52
2021/01/07 08:35:29;;;;;;;11.03;7.37;;;1.80;99.90;;;;;;5008050;28;20555;-52
2021/01/07 08:37:56;;;;;;;12.13;7.70;;;1.80;99.90;;;;;;5006335;28;20546;-54
2021/01/07 08:40:23;;;;;;;12.00;8.07;;;1.90;99.90;;;;;;5005796;28;20563;-53
2021/01/07 08:42:52;;;;;;;11.37;7.70;;;1.80;99.90;;;;;;5006946;28;20896;-51
2021/01/07 08:45:27;;;;;;;12.27;8.30;;;1.90;99.90;;;;;;5012247;28;21031;-51
2021/01/07 08:48:06;;;;;;;12.50;7.97;;;1.90;99.90;;;;;;5009559;28;20554;-51
2021/01/07 08:50:34;;;;;;;10.50;7.27;;;1.90;99.90;;;;;;5008917;28;20480;-51
2021/01/07 08:53:08;;;;;;;12.73;8.40;;;1.80;99.90;;;;;;5010111;28;20580;-52
2021/01/07 08:55:46;;;;;;;11.50;8.33;;;1.80;99.90;;;;;;5014335;28;20480;-51
2021/01/07 08:58:25;;;;;;;10.87;7.47;;;1.80;99.90;;;;;;5013848;28;20514;-52
2021/01/07 09:00:53;;;;;;;11.00;7.80;;;1.80;99.90;;;;;;5008745;28;20503;-51
2021/01/07 09:03:22;;;;;;;10.37;7.37;;;1.80;99.90;;;;;;5009102;28;20528;-52
2021/01/07 09:05:49;;;;;;;11.03;7.23;;;1.80;99.90;;;;;;5008589;28;20499;-53
2021/01/07 09:08:17;;;;;;;9.80;7.03;;;1.90;99.90;;;;;;5010669;28;20627;-53
2021/01/07 09:10:44;;;;;;;9.80;6.90;;;1.80;99.90;;;;;;5009265;28;20925;-54
2021/01/07 09:13:17;;;;;;;10.43;7.40;;;1.80;99.90;;;;;;5009314;28;20473;-53
2021/01/07 09:15:44;;;;;;;10.53;7.10;;;1.80;99.90;;;;;;5009330;28;20587;-52
2021/01/07 09:18:12;;;;;;;8.77;5.93;;;1.80;99.90;;;;;;5009288;28;20504;-51
2021/01/07 09:20:40;;;;;;;9.40;6.40;;;1.80;99.90;;;;;;5009466;28;20491;-51
2021/01/07 09:23:10;;;;;;;8.17;6.10;;;1.80;99.90;;;;;;5008776;28;20519;-50
2021/01/07 09:25:38;;;;;;;9.73;6.50;;;1.80;99.90;;;;;;5008479;28;21046;-52
2021/01/07 09:28:06;;;;;;;8.53;6.20;;;1.90;99.90;;;;;;5009191;28;20480;-53
2021/01/07 09:30:33;;;;;;;7.60;5.90;;;1.80;99.90;;;;;;5010037;28;20472;-51
2021/01/07 09:33:01;;;;;;;9.63;6.67;;;1.80;99.90;;;;;;5010588;28;20496;-51
2021/01/07 09:35:30;;;;;;;7.37;5.10;;;1.90;99.90;;;;;;5010165;28;20571;-52
2021/01/07 09:38:02;;;;;;;8.13;5.53;;;1.90;99.90;;;;;;5010380;28;20476;-53
2021/01/07 09:40:29;;;;;;;8.27;6.17;;;2.00;99.90;;;;;;5010687;28;20542;-52
2021/01/07 09:42:57;;;;;;;7.67;5.73;;;1.90;99.90;;;;;;5009621;28;20567;-54
2021/01/07 09:45:24;;;;;;;8.50;5.73;;;1.90;99.90;;;;;;5009733;28;20512;-51
2021/01/07 09:47:51;;;;;;;9.83;6.23;;;1.90;99.90;;;;;;5014803;28;20483;-52
2021/01/07 09:50:20;;;;;;;7.83;5.77;;;1.80;99.90;;;;;;5016970;28;20475;-51
2021/01/07 09:52:47;;;;;;;7.60;6.00;;;1.80;99.90;;;;;;5011146;28;20469;-51
2021/01/07 09:55:16;;;;;;;8.33;6.07;;;1.80;99.90;;;;;;5013967;28;20475;-51
2021/01/07 09:57:48;;;;;;;7.40;5.60;;;1.90;99.90;;;;;;5030303;28;20479;-51
2021/01/07 10:00:18;;;;;;;8.67;5.90;;;1.80;99.90;;;;;;5010246;28;20484;-51
2021/01/07 10:02:45;;;;;;;7.70;5.70;;;1.80;99.90;;;;;;5005386;28;21027;-54
2021/01/07 10:05:13;;;;;;;9.13;6.20;;;1.80;99.90;;;;;;5008497;28;20484;-53
2021/01/07 10:07:40;;;;;;;7.23;5.23;;;1.80;99.90;;;;;;5009760;28;20578;-53
2021/01/07 10:10:10;;;;;;;6.83;5.27;;;1.90;99.90;;;;;;5009530;28;20502;-51
2021/01/07 10:12:38;;;;;;;7.77;5.67;;;1.80;99.90;;;;;;5009347;28;20536;-51
2021/01/07 10:15:07;;;;;;;7.10;5.57;;;1.80;99.90;;;;;;5006327;28;21029;-51
2021/01/07 10:17:35;;;;;;;7.63;4.90;;;1.90;99.90;;;;;;5006903;28;20473;-53
2021/01/07 10:20:06;;;;;;;6.97;5.20;;;1.90;99.90;;;;;;4996614;28;20556;-52
2021/01/07 10:22:37;;;;;;;7.23;4.93;;;1.90;99.90;;;;;;4986527;28;20508;-52
2021/01/07 10:25:06;;;;;;;7.43;5.53;;;1.90;99.90;;;;;;4994161;28;20484;-50
2021/01/07 10:27:34;;;;;;;8.27;5.97;;;1.90;99.90;;;;;;5007025;28;20491;-52
2021/01/07 10:30:05;;;;;;;6.63;5.27;;;1.90;99.90;;;;;;5007042;28;20973;-52
2021/01/07 10:32:32;;;;;;;7.67;5.40;;;2.00;99.90;;;;;;5006052;28;20542;-51
2021/01/07 10:35:00;;;;;;;8.13;5.30;;;1.90;99.90;;;;;;5006494;28;20596;-51
2021/01/07 10:37:28;;;;;;;6.50;5.43;;;2.00;99.90;;;;;;5006110;28;20480;-52
2021/01/07 10:39:55;;;;;;;5.83;4.43;;;1.90;99.90;;;;;;5002193;28;20485;-51
2021/01/07 10:42:23;;;;;;;7.20;5.20;;;1.90;99.90;;;;;;5002880;28;20992;-53
2021/01/07 10:44:52;;;;;;;6.27;4.97;;;1.90;99.90;;;;;;5006536;28;21061;-51
2021/01/07 10:47:20;;;;;;;6.53;5.00;;;1.90;99.90;;;;;;5010261;28;20582;-53
2021/01/07 10:49:48;;;;;;;7.30;5.93;;;1.80;99.90;;;;;;5014716;28;20476;-52
2021/01/07 10:53:03;;;;;;;6.30;5.23;;;1.80;99.90;;;;;;5006501;28;20568;-54
2021/01/07 10:55:31;;;;;;;6.90;5.23;;;1.90;99.90;;;;;;5002613;28;20588;-50
2021/01/07 10:58:34;;;;;;;6.80;5.37;;;1.90;99.90;;;;;;5004747;28;20514;-51
2021/01/07 11:01:30;;;;;;;6.80;5.10;;;1.90;99.90;;;;;;5003695;28;20515;-52
2021/01/07 11:04:24;;;;;;;7.33;5.63;;;1.90;99.90;;;;;;5002643;28;20484;-53
2021/01/07 11:07:01;;;;;;;6.67;5.23;;;1.90;99.90;;;;;;5011193;28;20571;-51
2021/01/07 11:09:38;;;;;;;6.30;4.97;;;1.80;99.90;;;;;;4996529;28;20536;-52
2021/01/07 11:12:15;;;;;;;6.53;5.00;;;1.90;99.90;;;;;;4986380;28;20638;-54
2021/01/07 11:14:50;;;;;;;7.57;5.73;;;1.90;99.90;;;;;;4986130;28;20567;-52
2021/01/07 11:17:22;;;;;;;7.00;5.50;;;1.90;99.90;;;;;;4999239;28;20551;-51
2021/01/07 11:19:52;;;;;;;7.47;5.73;;;1.90;99.90;;;;;;5005938;28;20950;-52
2021/01/07 11:22:26;;;;;;;7.37;5.87;;;2.00;99.90;;;;;;5005818;28;21022;-51
2021/01/07 11:24:55;;;;;;;8.60;6.10;;;2.00;99.90;;;;;;5005600;28;20564;-51
2021/01/07 11:28:12;;;;;;;7.00;5.50;;;2.00;99.90;;;;;;5006142;28;20500;-51
2021/01/07 11:30:40;;;;;;;7.30;5.70;;;2.00;99.90;;;;;;5004802;28;20574;-51
2021/01/07 11:33:08;;;;;;;7.13;5.60;;;2.00;99.90;;;;;;5005283;28;20488;-51
2021/01/07 11:35:38;;;;;;;7.30;6.07;;;1.90;99.90;;;;;;5005568;28;20523;-53
2021/01/07 11:38:05;;;;;;;7.53;5.40;;;1.90;99.90;;;;;;5005760;28;20889;-51
2021/01/07 11:40:42;;;;;;;8.33;5.50;;;1.90;99.90;;;;;;5005080;28;20932;-52
2021/01/07 11:43:55;;;;;;;7.27;5.63;;;1.90;99.90;;;;;;5010716;28;20584;-53
2021/01/07 11:46:23;;;;;;;6.43;4.93;;;1.90;99.90;;;;;;4996871;28;20563;-51
2021/01/07 11:48:57;;;;;;;7.20;5.80;;;1.90;99.90;;;;;;5015338;28;20570;-52
2021/01/07 11:51:25;;;;;;;7.37;5.87;;;1.90;99.90;;;;;;5018204;28;20471;-52
2021/01/07 11:53:58;;;;;;;7.97;5.53;;;1.90;99.90;;;;;;5017940;28;20578;-52
2021/01/07 11:56:26;;;;;;;6.77;5.60;;;1.90;99.90;;;;;;5005243;28;20559;-52
2021/01/07 11:58:53;;;;;;;6.93;5.30;;;1.90;99.90;;;;;;4995593;28;20570;-52
2021/01/07 12:01:22;;;;;;;7.50;5.60;;;1.80;99.90;;;;;;5004029;28;21154;-51
2021/01/07 12:03:50;;;;;;;8.80;5.73;;;2.00;99.90;;;;;;5003464;28;20512;-51
2021/01/07 12:06:18;;;;;;;8.57;5.73;;;2.00;99.90;;;;;;5004203;28;20889;-51
2021/01/07 12:08:59;;;;;;;8.03;6.00;;;1.90;99.90;;;;;;5002697;28;21579;-51
2021/01/07 12:11:33;;;;;;;7.13;5.37;;;1.90;99.90;;;;;;5003302;28;20518;-51
2021/01/07 12:14:11;;;;;;;7.80;5.30;;;1.90;99.90;;;;;;4993615;28;20602;-52
2021/01/07 12:16:50;;;;;;;6.70;5.47;;;1.90;99.90;;;;;;4984045;28;20569;-51
2021/01/07 12:19:33;;;;;;;6.97;5.47;;;1.80;99.90;;;;;;4994752;28;20501;-51
2021/01/07 12:22:02;;;;;;;7.13;5.40;;;1.80;99.90;;;;;;5003712;28;21030;-51
2021/01/07 12:24:33;;;;;;;7.10;5.37;;;1.90;99.90;;;;;;5003477;28;20484;-51
2021/01/07 12:27:01;;;;;;;6.33;5.17;;;1.90;99.90;;;;;;5003500;28;20473;-50
2021/01/07 12:29:29;;;;;;;7.47;5.53;;;2.00;99.90;;;;;;5002859;28;20480;-51
2021/01/07 12:31:59;;;;;;;6.57;5.13;;;2.00;99.90;;;;;;5002987;28;20523;-51
2021/01/07 12:34:37;;;;;;;6.40;5.17;;;1.90;99.90;;;;;;5003739;28;20555;-51
2021/01/07 12:37:08;;;;;;;7.70;6.00;;;1.90;99.90;;;;;;5006037;28;20567;-55
2021/01/07 12:39:49;;;;;;;7.27;5.53;;;1.90;99.90;;;;;;5002223;28;20879;-52
2021/01/07 12:42:22;;;;;;;6.97;5.53;;;1.90;99.90;;;;;;5007130;28;20486;-51
2021/01/07 12:44:53;;;;;;;6.57;5.07;;;2.00;99.90;;;;;;5011272;28;20475;-53
2021/01/07 12:47:20;;;;;;;6.77;5.37;;;2.00;99.90;;;;;;5015190;28;20561;-50
2021/01/07 12:49:50;;;;;;;6.10;4.63;;;1.90;99.90;;;;;;5023024;28;20562;-50
2021/01/07 12:52:21;;;;;;;7.23;5.77;;;1.90;99.90;;;;;;5017876;28;20477;-52
2021/01/07 12:54:49;;;;;;;6.77;5.47;;;1.90;99.90;;;;;;5003476;28;20481;-52
2021/01/07 12:57:20;;;;;;;7.63;5.50;;;1.90;99.90;;;;;;5003905;28;21038;-53
2021/01/07 13:00:00;;;;;;;6.83;5.30;;;2.00;99.90;;;;;;5004449;28;20880;-51
2021/01/07 13:02:33;;;;;;;7.50;5.50;;;1.90;99.90;;;;;;4992194;28;21000;-52
2021/01/07 13:05:10;;;;;;;7.87;5.47;;;1.90;99.90;;;;;;5004360;28;20524;-51